Time;durP1;ratioP1;P1;durP2;ratioP2;P2;SDS_P1;SDS_P2;PMS_P1;PMS_P2;Temp;Humidity;BMP_temperature;BMP_pressure;BME280_temperature;BME280_humidity;BME280_pressure;Samples;Min_cycle;Max_cycle;Signal;HPM_P1;HPM_P2
2022/10/11 00:01:31;;;;;;;24.90;5.75;;;11.60;99.90;;;;;;5086578;28;20036;-82
2022/10/11 00:03:57;;;;;;;9.50;2.67;;;11.60;99.90;;;;;;5083178;28;20516;-82
2022/10/11 00:06:22;;;;;;;16.40;3.47;;;11.50;99.90;;;;;;5089133;28;20032;-82
2022/10/11 00:08:48;;;;;;;29.33;4.10;;;11.50;99.90;;;;;;5082283;28;20473;-81
2022/10/11 00:11:16;;;;;;;20.63;3.53;;;11.40;99.90;;;;;;5088531;28;20035;-82
2022/10/11 00:13:42;;;;;;;15.43;3.03;;;11.30;99.90;;;;;;5081309;28;20032;-81
2022/10/11 00:16:10;;;;;;;18.10;2.45;;;11.30;99.90;;;;;;5090230;28;20031;-79
2022/10/11 00:18:36;;;;;;;19.92;3.25;;;11.10;99.90;;;;;;5086445;28;20471;-82
2022/10/11 00:21:08;;;;;;;15.25;2.47;;;11.10;99.90;;;;;;5090290;28;20047;-82
2022/10/11 00:23:34;;;;;;;21.65;3.58;;;10.90;99.90;;;;;;5083636;28;20038;-82
2022/10/11 00:26:02;;;;;;;18.35;3.78;;;10.90;99.90;;;;;;5089025;28;20111;-82
2022/10/11 00:28:28;;;;;;;18.52;3.15;;;10.80;99.90;;;;;;5089387;28;20020;-81
2022/10/11 00:30:53;;;;;;;20.90;3.88;;;10.80;99.90;;;;;;5081488;28;20036;-81
2022/10/11 00:33:19;;;;;;;23.73;3.90;;;10.80;99.90;;;;;;5098194;28;20083;-82
2022/10/11 00:35:45;;;;;;;27.05;3.70;;;10.70;99.90;;;;;;5083734;28;20028;-82
2022/10/11 00:38:10;;;;;;;21.58;3.28;;;10.70;99.90;;;;;;5084474;28;20120;-82
2022/10/11 00:40:36;;;;;;;20.02;3.97;;;10.60;99.90;;;;;;5090216;28;20500;-81
2022/10/11 00:43:02;;;;;;;32.88;4.95;;;10.60;99.90;;;;;;5083759;28;20098;-82
2022/10/11 00:45:30;;;;;;;24.75;3.30;;;10.50;99.90;;;;;;5089905;28;20036;-82
2022/10/11 00:48:02;;;;;;;25.05;3.40;;;10.50;99.90;;;;;;5077468;28;20082;-81
2022/10/11 00:50:32;;;;;;;25.30;3.45;;;10.40;99.90;;;;;;5085580;28;20037;-82
2022/10/11 00:53:04;;;;;;;23.38;3.55;;;10.40;99.90;;;;;;5088749;28;20028;-82
2022/10/11 00:55:35;;;;;;;24.02;4.07;;;10.40;99.90;;;;;;5086665;28;20112;-81
2022/10/11 00:58:01;;;;;;;25.42;3.50;;;10.30;99.90;;;;;;5086044;28;20058;-81
2022/10/11 01:00:27;;;;;;;16.25;2.83;;;10.30;99.90;;;;;;5089016;28;20056;-82
2022/10/11 01:02:53;;;;;;;26.35;4.10;;;10.30;99.90;;;;;;5082896;28;20065;-81
2022/10/11 01:05:19;;;;;;;26.65;4.43;;;10.20;99.90;;;;;;5088501;28;20114;-81
2022/10/11 01:07:47;;;;;;;22.45;5.18;;;10.20;99.90;;;;;;5089067;28;20036;-82
2022/10/11 01:10:13;;;;;;;18.23;3.63;;;10.20;99.90;;;;;;5082975;28;20028;-81
2022/10/11 01:12:56;;;;;;;31.02;4.50;;;10.20;99.90;;;;;;5085872;28;20058;-82
2022/10/11 01:15:32;;;;;;;34.88;5.82;;;10.10;99.90;;;;;;5089719;28;20380;-81
2022/10/11 01:18:11;;;;;;;20.05;3.30;;;10.10;99.90;;;;;;5083914;28;20028;-81
2022/10/11 01:20:51;;;;;;;23.85;4.00;;;10.10;99.90;;;;;;5087877;28;20109;-82
2022/10/11 01:23:39;;;;;;;25.02;4.13;;;10.10;99.90;;;;;;5087474;28;20035;-81
2022/10/11 01:26:11;;;;;;;33.25;4.68;;;10.10;99.90;;;;;;5088458;28;20032;-81
2022/10/11 01:28:43;;;;;;;21.70;3.75;;;10.00;99.90;;;;;;5091322;28;20126;-80
2022/10/11 01:31:38;;;;;;;28.77;3.45;;;10.10;99.90;;;;;;5088919;28;20389;-82
2022/10/11 01:34:07;;;;;;;28.52;4.07;;;10.10;99.90;;;;;;5089495;28;20067;-82
2022/10/11 01:36:56;;;;;;;21.00;3.53;;;10.10;99.90;;;;;;5091792;28;20031;-81
2022/10/11 01:39:35;;;;;;;29.00;4.07;;;10.10;99.90;;;;;;5080014;28;20052;-81
2022/10/11 01:42:04;;;;;;;22.33;4.03;;;10.10;99.90;;;;;;5094207;28;20384;-81
2022/10/11 01:44:30;;;;;;;24.95;3.35;;;10.10;99.90;;;;;;5091183;28;20024;-81
2022/10/11 01:46:56;;;;;;;29.23;4.18;;;10.10;99.90;;;;;;5092229;28;20477;-82
2022/10/11 01:49:22;;;;;;;20.27;3.38;;;10.10;99.90;;;;;;5096116;28;20062;-81
2022/10/11 01:51:51;;;;;;;17.23;3.17;;;10.10;99.90;;;;;;5092511;28;20062;-81
2022/10/11 01:54:49;;;;;;;21.50;3.35;;;10.00;99.90;;;;;;5092220;28;20055;-81
2022/10/11 01:57:56;;;;;;;32.60;4.28;;;9.90;99.90;;;;;;5087425;28;20108;-81
2022/10/11 02:00:23;;;;;;;;;;;10.00;99.90;;;;;;5081905;28;20090;-81
2022/10/11 02:03:05;;;;;;;21.73;3.47;;;10.00;99.90;;;;;;5083910;28;19908;-82
2022/10/11 02:05:48;;;;;;;46.17;6.13;;;10.10;99.90;;;;;;5091405;28;20024;-82
2022/10/11 02:08:20;;;;;;;24.63;3.42;;;10.10;99.90;;;;;;5087128;28;20127;-82
2022/10/11 02:10:59;;;;;;;28.05;3.13;;;10.10;99.90;;;;;;5088389;28;20024;-82
2022/10/11 02:13:58;;;;;;;25.00;4.30;;;10.00;99.90;;;;;;5086185;28;20028;-82
2022/10/11 02:16:29;;;;;;;18.65;3.63;;;10.00;99.90;;;;;;5084334;28;20032;-81
2022/10/11 02:18:56;;;;;;;20.70;3.60;;;10.00;99.90;;;;;;5091002;28;20480;-82
2022/10/11 02:21:23;;;;;;;20.80;3.80;;;10.00;99.90;;;;;;5091432;28;20040;-80
2022/10/11 02:24:12;;;;;;;30.88;3.95;;;10.00;99.90;;;;;;5091825;28;20504;-81
2022/10/11 02:26:41;;;;;;;22.73;4.07;;;10.00;99.90;;;;;;5085984;28;20184;-82
2022/10/11 02:29:11;;;;;;;14.20;2.67;;;9.90;99.90;;;;;;5091755;28;20122;-81
2022/10/11 02:31:38;;;;;;;17.80;3.65;;;9.90;99.90;;;;;;5088130;28;20566;-80
2022/10/11 02:34:32;;;;;;;19.80;3.20;;;9.80;99.90;;;;;;5089398;28;20032;-82
2022/10/11 02:37:23;;;;;;;20.55;3.05;;;9.70;99.90;;;;;;5078955;28;20028;-81
2022/10/11 02:40:03;;;;;;;20.00;3.38;;;9.60;99.90;;;;;;5106416;28;20036;-82
2022/10/11 02:42:37;;;;;;;18.75;2.95;;;9.50;99.90;;;;;;5092657;28;20028;-81
2022/10/11 02:45:17;;;;;;;19.20;3.33;;;9.40;99.90;;;;;;5077559;28;20110;-80
2022/10/11 02:47:49;;;;;;;21.73;3.60;;;9.30;99.90;;;;;;5083386;28;20028;-82
2022/10/11 02:50:15;;;;;;;20.02;3.75;;;9.30;99.90;;;;;;5082067;28;20119;-82
2022/10/11 02:52:40;;;;;;;18.42;2.72;;;9.20;99.90;;;;;;5081987;28;20119;-82
2022/10/11 02:55:07;;;;;;;15.00;3.08;;;9.20;99.90;;;;;;5085742;28;20552;-81
2022/10/11 02:57:32;;;;;;;20.67;3.88;;;9.10;99.90;;;;;;5085916;28;20119;-82
2022/10/11 02:59:58;;;;;;;9.70;1.80;;;9.00;99.90;;;;;;5087138;28;20147;-82
2022/10/11 03:02:23;;;;;;;20.50;3.63;;;9.00;99.90;;;;;;5084916;28;20453;-82
2022/10/11 03:04:49;;;;;;;19.05;3.05;;;8.90;99.90;;;;;;5085559;28;20039;-82
2022/10/11 03:07:15;;;;;;;22.85;3.40;;;8.90;99.90;;;;;;5082434;28;20379;-82
2022/10/11 03:09:40;;;;;;;18.38;3.80;;;8.80;99.90;;;;;;5087843;28;20107;-82
2022/10/11 03:12:06;;;;;;;19.60;3.45;;;8.90;99.90;;;;;;5089592;28;20089;-82
2022/10/11 03:14:33;;;;;;;19.73;3.55;;;8.90;99.90;;;;;;5086968;28;20036;-82
2022/10/11 03:16:59;;;;;;;16.05;3.72;;;8.80;99.90;;;;;;5088694;28;20074;-82
2022/10/11 03:19:25;;;;;;;19.42;3.58;;;8.80;99.90;;;;;;5078583;28;20070;-81
2022/10/11 03:21:50;;;;;;;29.92;3.13;;;8.80;99.90;;;;;;5088549;28;20024;-82
2022/10/11 03:24:19;;;;;;;24.88;3.67;;;8.70;99.90;;;;;;5089851;28;20047;-80
2022/10/11 03:26:44;;;;;;;20.02;3.42;;;8.70;99.90;;;;;;5083904;28;20028;-81
2022/10/11 03:29:10;;;;;;;24.23;3.58;;;8.70;99.90;;;;;;5085026;28;20092;-80
2022/10/11 03:31:35;;;;;;;17.85;3.50;;;8.70;99.90;;;;;;5084724;28;20035;-81
2022/10/11 03:34:01;;;;;;;21.27;3.22;;;8.70;99.90;;;;;;5087785;28;20032;-82
2022/10/11 03:36:27;;;;;;;18.17;4.75;;;8.60;99.90;;;;;;5085574;28;20150;-82
2022/10/11 03:38:52;;;;;;;18.30;3.88;;;8.60;99.90;;;;;;5084599;28;20040;-81
2022/10/11 03:41:18;;;;;;;22.45;2.78;;;8.60;99.90;;;;;;5086403;28;20048;-82
2022/10/11 03:43:44;;;;;;;24.25;3.33;;;8.60;99.90;;;;;;5083322;28;20035;-82
2022/10/11 03:46:09;;;;;;;15.52;4.03;;;8.60;99.90;;;;;;5088487;28;20123;-82
2022/10/11 03:48:35;;;;;;;20.00;3.25;;;8.50;99.90;;;;;;5083724;28;20039;-82
2022/10/11 03:51:01;;;;;;;19.75;2.90;;;8.60;99.90;;;;;;5085252;28;20111;-81
2022/10/11 03:53:28;;;;;;;17.83;2.85;;;8.60;99.90;;;;;;5078971;28;20648;-81
2022/10/11 03:56:12;;;;;;;27.83;4.38;;;8.60;99.90;;;;;;5082661;28;20093;-82
2022/10/11 03:58:46;;;;;;;29.40;3.08;;;8.60;99.90;;;;;;5068530;28;20040;-81
2022/10/11 04:01:41;;;;;;;13.43;2.45;;;8.60;99.90;;;;;;5088384;28;20113;-82
2022/10/11 04:04:53;;;;;;;19.50;2.70;;;8.50;99.90;;;;;;5075277;28;20610;-82
2022/10/11 04:11:47;;;;;;;17.70;3.80;;;8.40;99.90;;;;;;5064388;28;20044;-79
2022/10/11 04:14:42;;;;;;;;;;;;;;;;;;;;;
2022/10/11 04:17:29;;;;;;;24.83;3.33;;;8.40;99.90;;;;;;5076296;28;20378;-82
2022/10/11 04:20:06;;;;;;;20.05;3.17;;;8.30;99.90;;;;;;5076423;28;20070;-80
2022/10/11 04:22:41;;;;;;;17.13;4.45;;;8.30;99.90;;;;;;5086164;28;20040;-80
2022/10/11 04:25:30;;;;;;;24.48;3.92;;;8.20;99.90;;;;;;5082361;28;20032;-80
2022/10/11 04:27:58;;;;;;;12.65;2.80;;;8.20;99.90;;;;;;5087064;28;20044;-80
2022/10/11 04:30:27;;;;;;;18.15;3.35;;;8.10;99.90;;;;;;5079218;28;20031;-79
2022/10/11 04:33:03;;;;;;;20.95;2.97;;;8.10;99.90;;;;;;5081790;28;20578;-81
2022/10/11 04:35:51;;;;;;;17.83;2.63;;;8.10;99.90;;;;;;5080398;28;20188;-80
2022/10/11 04:38:34;;;;;;;22.52;4.25;;;8.00;99.90;;;;;;5089982;28;20259;-80
2022/10/11 04:41:48;;;;;;;24.73;4.32;;;8.00;99.90;;;;;;5076793;28;20076;-80
2022/10/11 04:44:22;;;;;;;16.10;2.40;;;8.00;99.90;;;;;;5077612;28;20077;-81
2022/10/11 04:46:56;;;;;;;14.63;3.17;;;8.00;99.90;;;;;;5081962;28;20480;-81
2022/10/11 04:52:39;;;;;;;12.07;2.40;;;8.00;99.90;;;;;;5076552;28;20553;-80
2022/10/11 04:55:05;;;;;;;15.18;2.85;;;7.90;99.90;;;;;;5084242;28;20066;-81
2022/10/11 04:57:31;;;;;;;23.23;4.78;;;7.90;99.90;;;;;;5086008;28;20473;-81
2022/10/11 04:59:56;;;;;;;12.05;3.38;;;7.80;99.90;;;;;;5088216;28;20403;-81
2022/10/11 05:02:22;;;;;;;18.75;3.35;;;7.80;99.90;;;;;;5087743;28;20040;-81
2022/10/11 05:04:47;;;;;;;13.68;2.42;;;7.80;99.90;;;;;;5087497;28;20126;-81
2022/10/11 05:07:13;;;;;;;17.63;3.20;;;7.80;99.90;;;;;;5090266;28;20028;-81
2022/10/11 05:09:39;;;;;;;14.35;2.85;;;7.80;99.90;;;;;;5085812;28;20362;-80
2022/10/11 05:12:05;;;;;;;13.70;3.55;;;7.80;99.90;;;;;;5090007;28;20028;-81
2022/10/11 05:14:30;;;;;;;13.63;2.38;;;7.80;99.90;;;;;;5087201;28;20024;-81
2022/10/11 05:16:56;;;;;;;16.08;3.05;;;7.70;99.90;;;;;;5089768;28;20032;-81
2022/10/11 05:19:21;;;;;;;21.23;3.55;;;7.70;99.90;;;;;;5087751;28;20529;-81
2022/10/11 05:21:47;;;;;;;18.63;3.10;;;7.70;99.90;;;;;;5086202;28;20059;-81
2022/10/11 05:24:13;;;;;;;16.58;2.75;;;7.60;99.90;;;;;;5088184;28;20052;-81
2022/10/11 05:26:38;;;;;;;12.35;2.58;;;7.60;99.90;;;;;;5083362;28;20036;-81
2022/10/11 05:29:04;;;;;;;18.95;2.97;;;7.60;99.90;;;;;;5081737;28;20093;-79
2022/10/11 05:31:32;;;;;;;22.63;3.60;;;7.60;99.90;;;;;;5075909;28;20441;-81
2022/10/11 05:33:58;;;;;;;24.85;2.97;;;7.60;99.90;;;;;;5089089;28;20449;-81
2022/10/11 05:36:24;;;;;;;30.33;3.95;;;7.70;99.90;;;;;;5082863;28;20435;-81
2022/10/11 05:38:50;;;;;;;16.63;3.25;;;7.80;99.90;;;;;;5092283;28;20024;-81
2022/10/11 05:41:17;;;;;;;25.38;4.15;;;7.80;99.90;;;;;;5091751;28;20044;-81
2022/10/11 05:43:45;;;;;;;24.17;3.78;;;7.80;99.90;;;;;;5080237;28;20513;-81
2022/10/11 05:46:11;;;;;;;20.15;2.78;;;7.90;99.90;;;;;;5086287;28;20046;-81
2022/10/11 05:48:37;;;;;;;21.65;3.47;;;7.90;99.90;;;;;;5088349;28;20362;-80
2022/10/11 05:51:05;;;;;;;17.55;2.90;;;8.00;99.90;;;;;;5089196;28;20035;-81
2022/10/11 05:53:35;;;;;;;19.98;3.03;;;8.00;99.90;;;;;;5090077;28;20017;-82
2022/10/11 05:56:00;;;;;;;15.05;3.20;;;8.00;99.90;;;;;;5088908;28;20055;-81
2022/10/11 05:58:32;;;;;;;12.77;3.30;;;8.00;99.90;;;;;;5088326;28;20059;-81
2022/10/11 06:00:58;;;;;;;21.60;3.20;;;8.10;99.90;;;;;;5088864;28;20048;-81
2022/10/11 06:03:32;;;;;;;32.40;4.30;;;8.00;99.90;;;;;;5088265;28;20020;-81
2022/10/11 06:06:01;;;;;;;22.47;3.27;;;8.10;99.90;;;;;;5089217;28;20438;-81
2022/10/11 06:08:29;;;;;;;32.97;3.35;;;8.10;99.90;;;;;;5090806;28;20032;-81
2022/10/11 06:10:55;;;;;;;23.75;3.25;;;8.30;99.90;;;;;;5083419;28;20055;-81
2022/10/11 06:13:27;;;;;;;24.60;3.55;;;8.40;99.90;;;;;;5092113;28;20059;-80
2022/10/11 06:15:53;;;;;;;23.67;3.42;;;8.50;99.90;;;;;;5092714;28;20381;-80
2022/10/11 06:18:24;;;;;;;33.03;7.75;;;8.60;99.90;;;;;;5092123;28;20031;-81
2022/10/11 06:20:50;;;;;;;41.83;10.45;;;8.70;99.90;;;;;;5092384;28;20032;-81
2022/10/11 06:23:16;;;;;;;44.13;13.43;;;8.80;99.90;;;;;;5092744;28;20150;-82
2022/10/11 06:25:41;;;;;;;45.40;11.63;;;8.90;99.90;;;;;;5091872;28;20047;-82
2022/10/11 06:28:07;;;;;;;30.95;8.95;;;8.90;99.90;;;;;;5092490;28;20080;-80
2022/10/11 06:30:37;;;;;;;38.33;9.20;;;9.00;99.90;;;;;;5091916;28;20028;-81
2022/10/11 06:33:03;;;;;;;47.38;7.72;;;9.10;99.90;;;;;;5084071;28;20055;-81
2022/10/11 06:35:31;;;;;;;25.58;7.22;;;9.20;99.90;;;;;;5083465;28;20468;-81
2022/10/11 06:37:57;;;;;;;33.03;9.35;;;9.20;99.90;;;;;;5092264;28;20020;-81
2022/10/11 06:40:29;;;;;;;29.30;5.60;;;9.20;99.90;;;;;;5091462;28;20051;-81
2022/10/11 06:42:54;;;;;;;33.40;7.70;;;9.30;99.90;;;;;;5092071;28;20553;-81
2022/10/11 06:45:20;;;;;;;40.28;7.93;;;9.40;99.90;;;;;;5091652;28;20119;-81
2022/10/11 06:47:45;;;;;;;33.47;7.10;;;9.40;99.90;;;;;;5091953;28;20024;-81
2022/10/11 06:50:12;;;;;;;38.38;6.47;;;9.50;99.90;;;;;;5091353;28;20385;-81
2022/10/11 06:52:37;;;;;;;18.35;5.47;;;9.60;99.90;;;;;;5091862;28;20141;-80
2022/10/11 06:55:03;;;;;;;34.20;4.30;;;9.60;99.90;;;;;;5091508;28;20028;-81
2022/10/11 06:57:29;;;;;;;39.55;5.43;;;9.70;99.90;;;;;;5091698;28;20028;-81
2022/10/11 06:59:54;;;;;;;32.80;5.75;;;9.70;99.90;;;;;;5091043;28;20039;-81
2022/10/11 07:02:20;;;;;;;30.90;4.78;;;9.80;99.90;;;;;;5091980;28;20062;-81
2022/10/11 07:04:45;;;;;;;32.30;4.00;;;9.80;99.90;;;;;;5090957;28;20540;-81
2022/10/11 07:07:14;;;;;;;23.77;5.05;;;10.00;99.90;;;;;;5091548;28;20202;-81
2022/10/11 07:09:40;;;;;;;21.92;3.53;;;10.00;99.90;;;;;;5090807;28;20074;-81
2022/10/11 07:12:06;;;;;;;29.27;3.70;;;10.10;99.90;;;;;;5090700;28;20472;-82
2022/10/11 07:14:34;;;;;;;22.90;3.33;;;10.20;99.90;;;;;;5090978;28;20034;-81
2022/10/11 07:17:00;;;;;;;23.27;3.33;;;10.20;99.90;;;;;;5090227;28;20028;-81
2022/10/11 07:19:32;;;;;;;17.67;2.88;;;10.30;99.90;;;;;;5090478;28;20526;-81
2022/10/11 07:21:57;;;;;;;20.85;3.63;;;10.40;99.90;;;;;;5091460;28;20032;-81
2022/10/11 07:24:32;;;;;;;23.15;3.72;;;10.40;99.90;;;;;;5090713;28;20081;-80
2022/10/11 07:26:58;;;;;;;29.27;7.20;;;10.50;99.90;;;;;;5091135;28;20028;-82
2022/10/11 07:29:24;;;;;;;27.60;4.03;;;10.60;99.90;;;;;;5090609;28;20020;-81
2022/10/11 07:31:49;;;;;;;22.55;4.63;;;10.70;99.90;;;;;;5091274;28;20035;-81
2022/10/11 07:34:15;;;;;;;18.55;4.38;;;10.70;99.90;;;;;;5090264;28;20024;-82
2022/10/11 07:36:41;;;;;;;29.00;3.33;;;10.70;99.90;;;;;;5090803;28;20086;-82
2022/10/11 07:39:07;;;;;;;30.15;4.93;;;10.70;99.90;;;;;;5090576;28;20020;-81
2022/10/11 07:41:33;;;;;;;26.88;3.13;;;10.80;99.90;;;;;;5084704;28;20431;-81
2022/10/11 07:43:59;;;;;;;30.25;3.70;;;10.80;99.90;;;;;;5090155;28;20039;-81
2022/10/11 07:46:34;;;;;;;17.65;3.42;;;10.80;99.90;;;;;;5090684;28;20028;-81
2022/10/11 07:49:00;;;;;;;22.42;4.18;;;10.90;99.90;;;;;;5089999;28;20028;-81
2022/10/11 07:51:25;;;;;;;23.08;3.83;;;11.00;99.90;;;;;;5096557;28;20361;-81
2022/10/11 07:53:56;;;;;;;22.55;2.92;;;11.10;99.90;;;;;;5086188;28;20031;-80
2022/10/11 07:56:28;;;;;;;19.70;3.20;;;11.10;99.90;;;;;;5091380;28;20507;-81
2022/10/11 07:58:56;;;;;;;20.50;3.25;;;11.10;99.90;;;;;;5087209;28;20397;-81
2022/10/11 08:01:22;;;;;;;29.13;4.55;;;11.20;99.90;;;;;;5084880;28;20044;-80
2022/10/11 08:03:49;;;;;;;24.83;3.75;;;11.20;99.90;;;;;;5083748;28;20130;-82
2022/10/11 08:06:17;;;;;;;25.15;3.53;;;11.20;99.90;;;;;;5087031;28;20028;-81
2022/10/11 08:08:43;;;;;;;21.17;3.22;;;11.30;99.90;;;;;;5081940;28;20064;-82
2022/10/11 08:11:08;;;;;;;21.38;2.92;;;11.30;99.90;;;;;;5087283;28;20416;-81
2022/10/11 08:13:38;;;;;;;22.08;3.60;;;11.30;99.90;;;;;;5091463;28;20046;-81
2022/10/11 08:16:11;;;;;;;25.80;3.33;;;11.40;99.90;;;;;;5076441;28;20044;-81
2022/10/11 08:18:36;;;;;;;22.77;4.20;;;11.50;99.90;;;;;;5090069;28;20071;-82
2022/10/11 08:21:07;;;;;;;23.00;3.85;;;11.50;99.90;;;;;;5084931;28;20823;-82
2022/10/11 08:23:33;;;;;;;30.48;3.45;;;11.60;99.90;;;;;;5088264;28;20043;-82
2022/10/11 08:25:58;;;;;;;30.65;5.80;;;11.60;99.90;;;;;;5082941;28;20039;-81
2022/10/11 08:28:24;;;;;;;30.92;4.88;;;11.60;99.90;;;;;;5087802;28;20054;-82
2022/10/11 08:30:51;;;;;;;21.13;3.70;;;11.70;99.90;;;;;;5086606;28;20034;-82
2022/10/11 08:33:18;;;;;;;21.10;4.97;;;11.60;99.90;;;;;;5086372;28;20024;-82
2022/10/11 08:35:44;;;;;;;14.40;2.70;;;11.60;99.90;;;;;;5080604;28;20533;-82
2022/10/11 08:38:09;;;;;;;30.58;3.95;;;11.60;99.90;;;;;;5089655;28;20115;-81
2022/10/11 08:40:35;;;;;;;24.67;3.30;;;11.60;99.90;;;;;;5089237;28;20043;-81
2022/10/11 08:43:10;;;;;;;24.70;2.70;;;11.70;99.90;;;;;;5084275;28;20716;-81
2022/10/11 08:45:50;;;;;;;25.73;3.33;;;11.60;99.90;;;;;;5089130;28;20150;-82
2022/10/11 08:48:31;;;;;;;31.13;5.07;;;11.60;99.90;;;;;;5083970;28;20043;-82
2022/10/11 08:50:57;;;;;;;25.20;3.40;;;11.70;99.90;;;;;;5081239;28;20038;-81
2022/10/11 08:53:52;;;;;;;20.30;3.85;;;11.70;99.90;;;;;;5087187;28;20123;-81
2022/10/11 08:56:19;;;;;;;30.35;3.65;;;11.80;99.90;;;;;;5079307;28;20036;-81
2022/10/11 08:59:00;;;;;;;25.60;4.32;;;11.90;99.90;;;;;;5085719;28;20024;-81
2022/10/11 09:01:32;;;;;;;25.73;3.72;;;12.00;99.90;;;;;;5079158;28;20412;-82
2022/10/11 09:04:02;;;;;;;27.48;3.38;;;12.00;99.90;;;;;;5081140;28;20043;-82
2022/10/11 09:06:42;;;;;;;15.35;2.97;;;12.00;99.90;;;;;;5089167;28;20030;-81
2022/10/11 09:09:38;;;;;;;26.65;4.07;;;12.00;99.90;;;;;;5082416;28;20040;-82
2022/10/11 09:12:17;;;;;;;26.02;4.57;;;12.00;99.90;;;;;;5081147;28;20055;-81
2022/10/11 09:14:54;;;;;;;24.90;3.17;;;12.00;99.90;;;;;;5082208;28;20274;-82
2022/10/11 09:17:58;;;;;;;25.05;3.42;;;12.00;99.90;;;;;;5087435;28;20056;-81
2022/10/11 09:20:48;;;;;;;30.70;5.13;;;12.00;99.90;;;;;;5062158;28;20056;-81
2022/10/11 09:23:43;;;;;;;26.10;3.40;;;12.10;99.90;;;;;;5083345;28;20032;-82
2022/10/11 09:26:24;;;;;;;32.40;4.40;;;12.20;99.90;;;;;;5087568;28;20032;-80
2022/10/11 09:29:28;;;;;;;15.18;2.70;;;12.20;99.90;;;;;;5085347;28;20032;-81
2022/10/11 09:31:55;;;;;;;26.83;3.78;;;12.30;99.90;;;;;;5090410;28;20032;-80
2022/10/11 09:34:31;;;;;;;18.02;3.33;;;12.30;99.90;;;;;;5088267;28;20034;-80
2022/10/11 09:37:09;;;;;;;18.38;3.67;;;12.30;99.90;;;;;;5084229;28;20031;-82
2022/10/11 09:39:38;;;;;;;26.02;4.13;;;12.30;99.90;;;;;;5086950;28;20064;-82
2022/10/11 09:42:09;;;;;;;26.25;3.55;;;12.40;99.90;;;;;;5088642;28;20032;-81
2022/10/11 09:44:49;;;;;;;21.48;3.35;;;12.50;99.90;;;;;;5088176;28;20055;-81
2022/10/11 09:47:25;;;;;;;22.92;3.20;;;12.50;99.90;;;;;;5083083;28;20476;-81
2022/10/11 09:49:59;;;;;;;11.40;2.50;;;12.50;99.90;;;;;;5092541;28;20475;-81
2022/10/11 09:52:25;;;;;;;32.10;3.30;;;12.50;99.90;;;;;;5093066;28;20089;-82
2022/10/11 09:54:54;;;;;;;23.85;4.38;;;12.60;99.90;;;;;;5092557;28;20085;-80
2022/10/11 09:57:38;;;;;;;23.20;3.42;;;12.70;99.90;;;;;;5093213;28;20411;-80
2022/10/11 10:00:20;;;;;;;20.05;2.40;;;12.80;99.90;;;;;;5092801;28;20136;-81
2022/10/11 10:02:49;;;;;;;18.92;3.97;;;12.90;99.90;;;;;;5092792;28;20032;-81
2022/10/11 10:05:29;;;;;;;19.35;2.85;;;12.90;99.90;;;;;;5092295;28;20024;-82
2022/10/11 10:08:06;;;;;;;16.38;2.95;;;12.90;99.90;;;;;;5092597;28;20028;-81
2022/10/11 10:10:40;;;;;;;17.48;2.70;;;13.00;99.90;;;;;;5082976;28;20059;-82
2022/10/11 10:13:23;;;;;;;21.00;3.20;;;13.00;99.90;;;;;;5093126;28;20024;-80
2022/10/11 10:15:52;;;;;;;23.55;3.45;;;13.10;99.90;;;;;;5088167;28;20103;-84
2022/10/11 10:18:47;;;;;;;13.27;2.55;;;13.20;99.90;;;;;;5093027;28;20028;-82
2022/10/11 10:21:14;;;;;;;14.20;2.40;;;13.20;99.90;;;;;;5081062;28;20055;-81
2022/10/11 10:23:43;;;;;;;21.48;3.90;;;13.30;99.90;;;;;;5092434;28;20032;-81
2022/10/11 10:26:24;;;;;;;20.90;2.85;;;13.30;99.90;;;;;;5091838;28;20024;-81
2022/10/11 10:29:06;;;;;;;24.50;3.08;;;13.50;99.90;;;;;;5082706;28;20028;-81
2022/10/11 10:31:53;;;;;;;14.65;2.67;;;13.50;99.90;;;;;;5091636;28;20397;-82
2022/10/11 10:34:32;;;;;;;11.35;2.47;;;13.50;99.90;;;;;;5091706;28;20476;-82
2022/10/11 10:37:12;;;;;;;19.08;2.58;;;13.50;99.90;;;;;;5084059;28;20510;-81
2022/10/11 10:39:44;;;;;;;23.35;3.28;;;13.50;99.90;;;;;;5091224;28;20052;-81
2022/10/11 10:42:16;;;;;;;14.48;2.38;;;13.50;99.90;;;;;;5092042;28;20423;-81
2022/10/11 10:44:45;;;;;;;10.13;1.95;;;13.60;99.90;;;;;;5085974;28;20189;-81
2022/10/11 10:47:19;;;;;;;17.40;3.17;;;13.60;99.90;;;;;;5092142;28;20077;-82
2022/10/11 10:50:01;;;;;;;15.25;2.53;;;13.60;99.90;;;;;;5091131;28;20164;-82
2022/10/11 10:52:51;;;;;;;14.07;2.15;;;13.70;99.90;;;;;;5084029;28;20142;-81
2022/10/11 10:55:40;;;;;;;12.20;2.40;;;13.70;99.90;;;;;;5082563;28;20077;-82
2022/10/11 10:58:32;;;;;;;23.33;2.65;;;13.70;99.90;;;;;;5091541;28;20354;-81
2022/10/11 11:01:09;;;;;;;22.85;3.40;;;13.70;99.90;;;;;;5047226;28;20047;-82
2022/10/11 11:04:14;;;;;;;17.25;1.77;;;13.70;99.90;;;;;;5088327;28;20503;-81
2022/10/11 11:06:56;;;;;;;16.95;2.40;;;13.80;99.90;;;;;;5057022;28;20054;-82
2022/10/11 11:09:50;;;;;;;14.38;2.25;;;13.80;99.90;;;;;;5087571;28;20024;-82
2022/10/11 11:12:21;;;;;;;13.70;2.25;;;13.80;99.90;;;;;;5090117;28;20052;-82
2022/10/11 11:15:11;;;;;;;22.35;2.50;;;13.80;99.90;;;;;;5090829;28;20040;-82
2022/10/11 11:18:13;;;;;;;15.15;2.22;;;13.90;99.90;;;;;;5084245;28;20424;-81
2022/10/11 11:20:52;;;;;;;17.90;2.33;;;13.80;99.90;;;;;;5083820;28;20040;-82
2022/10/11 11:23:27;;;;;;;17.58;3.10;;;13.90;99.90;;;;;;5086391;28;20494;-81
2022/10/11 11:26:07;;;;;;;10.57;1.85;;;13.80;99.90;;;;;;5080455;28;20477;-82
2022/10/11 11:28:42;;;;;;;20.63;2.85;;;13.80;99.90;;;;;;5089972;28;20047;-81
2022/10/11 11:31:37;;;;;;;12.13;2.55;;;13.80;99.90;;;;;;5090401;28;20540;-81
2022/10/11 11:34:21;;;;;;;21.50;3.03;;;13.90;99.90;;;;;;5091002;28;20040;-81
2022/10/11 11:37:01;;;;;;;14.10;2.40;;;14.00;99.90;;;;;;5081570;28;20392;-81
2022/10/11 11:39:46;;;;;;;20.00;3.55;;;14.00;99.90;;;;;;5083982;28;20043;-80
2022/10/11 11:42:35;;;;;;;9.60;2.78;;;14.00;99.90;;;;;;5084245;28;20063;-81
2022/10/11 11:45:12;;;;;;;17.15;3.03;;;14.00;99.90;;;;;;5086311;28;20044;-80
2022/10/11 11:47:50;;;;;;;20.38;3.03;;;14.10;99.90;;;;;;5090755;28;20024;-80
2022/10/11 11:50:22;;;;;;;21.73;2.88;;;14.20;99.90;;;;;;5089381;28;20032;-81
2022/10/11 11:53:06;;;;;;;10.35;2.47;;;14.20;99.90;;;;;;5091003;28;20024;-81
2022/10/11 11:55:58;;;;;;;22.73;2.65;;;14.20;99.90;;;;;;5088388;28;20039;-81
2022/10/11 11:58:35;;;;;;;13.98;2.47;;;14.20;99.90;;;;;;5067779;28;20177;-80
2022/10/11 12:01:33;;;;;;;12.02;2.70;;;14.20;99.90;;;;;;5086971;28;20056;-81
2022/10/11 12:04:06;;;;;;;15.63;1.88;;;14.30;99.90;;;;;;5083801;28;20032;-80
2022/10/11 12:06:35;;;;;;;12.63;2.28;;;14.30;99.90;;;;;;5089160;28;20028;-81
2022/10/11 12:09:06;;;;;;;10.73;2.78;;;14.30;99.90;;;;;;5089672;28;20024;-81
2022/10/11 12:12:05;;;;;;;11.55;2.58;;;14.40;99.90;;;;;;5089786;28;20521;-81
2022/10/11 12:14:38;;;;;;;17.65;2.80;;;14.50;99.90;;;;;;5084247;28;20115;-78
2022/10/11 12:17:09;;;;;;;19.65;3.00;;;14.60;99.90;;;;;;5087067;28;20097;-81
2022/10/11 12:19:57;;;;;;;14.07;2.72;;;14.80;99.90;;;;;;5085571;28;20061;-81
2022/10/11 12:22:25;;;;;;;20.30;2.97;;;14.90;99.90;;;;;;5095886;28;20123;-80
2022/10/11 12:24:55;;;;;;;12.85;3.00;;;14.80;99.90;;;;;;5084871;28;20574;-80
2022/10/11 12:27:39;;;;;;;15.20;2.55;;;14.80;99.90;;;;;;5090182;28;20539;-80
2022/10/11 12:30:43;;;;;;;11.98;2.90;;;14.80;99.90;;;;;;5080542;28;20032;-81
2022/10/11 12:33:37;;;;;;;12.18;2.13;;;14.80;99.90;;;;;;5087465;28;20039;-81
2022/10/11 12:36:21;;;;;;;15.65;2.63;;;14.80;99.90;;;;;;5072188;28;20036;-80
2022/10/11 12:39:19;;;;;;;15.57;3.03;;;14.80;99.90;;;;;;5087543;28;20024;-81
2022/10/11 12:41:52;;;;;;;15.75;2.33;;;14.90;99.90;;;;;;5080618;28;20039;-81
2022/10/11 12:44:18;;;;;;;18.05;3.80;;;14.90;99.90;;;;;;5087871;28;20032;-81
2022/10/11 12:46:49;;;;;;;12.18;2.20;;;14.80;99.90;;;;;;5076775;28;20032;-80
2022/10/11 12:49:40;;;;;;;9.88;1.75;;;14.80;99.90;;;;;;5083127;28;20107;-80
2022/10/11 12:52:27;;;;;;;7.75;2.35;;;14.80;99.90;;;;;;5081183;28;20058;-79
2022/10/11 12:55:07;;;;;;;8.52;2.05;;;14.70;99.90;;;;;;5088671;28;20048;-79
2022/10/11 12:58:11;;;;;;;11.45;2.85;;;14.70;99.90;;;;;;5084797;28;20028;-81
2022/10/11 13:00:42;;;;;;;14.15;2.60;;;14.60;99.90;;;;;;5084116;28;20080;-87
2022/10/11 13:03:29;;;;;;;12.50;2.63;;;14.60;99.90;;;;;;5086671;28;20043;-80
2022/10/11 13:05:56;;;;;;;12.75;2.10;;;14.70;99.90;;;;;;5088644;28;20032;-80
2022/10/11 13:08:44;;;;;;;10.75;2.53;;;14.70;99.90;;;;;;5082493;28;20033;-80
2022/10/11 13:11:18;;;;;;;10.57;2.33;;;14.70;99.90;;;;;;5087726;28;20043;-80
2022/10/11 13:13:50;;;;;;;15.30;2.28;;;14.70;99.90;;;;;;5089578;28;20059;-80
2022/10/11 13:16:43;;;;;;;11.95;2.28;;;14.70;99.90;;;;;;5088782;28;20036;-80
2022/10/11 13:19:13;;;;;;;14.90;3.20;;;14.70;99.90;;;;;;5089231;28;20457;-80
2022/10/11 13:21:39;;;;;;;20.60;2.47;;;14.60;99.90;;;;;;5082757;28;20059;-80